Time;durP1;ratioP1;P1;durP2;ratioP2;P2;SDS_P1;SDS_P2;PMS_P1;PMS_P2;Temp;Humidity;BMP_temperature;BMP_pressure;BME280_temperature;BME280_humidity;BME280_pressure;Samples;Min_cycle;Max_cycle;Signal;HPM_P1;HPM_P2
2022/03/05 00:01:02;;;;;;;13.63;3.72;;;-4.30;99.90;;;;;;5005842;28;20038;-65
2022/03/05 00:03:29;;;;;;;18.50;4.57;;;-4.40;99.90;;;;;;5005987;28;20046;-67
2022/03/05 00:05:56;;;;;;;11.90;3.30;;;-4.40;99.90;;;;;;5003972;28;20516;-65
2022/03/05 00:08:23;;;;;;;18.47;4.37;;;-4.40;99.90;;;;;;5004762;28;20080;-64
2022/03/05 00:10:50;;;;;;;14.70;3.47;;;-4.40;99.90;;;;;;5000509;28;20065;-68
2022/03/05 00:13:17;;;;;;;23.17;5.57;;;-4.50;99.90;;;;;;4993316;28;20104;-64
2022/03/05 00:15:45;;;;;;;14.03;4.20;;;-4.50;99.90;;;;;;5003989;28;20088;-65
2022/03/05 00:18:12;;;;;;;11.97;3.57;;;-4.50;99.90;;;;;;5005070;28;20153;-64
2022/03/05 00:20:39;;;;;;;17.80;4.90;;;-4.50;99.90;;;;;;5002991;28;20208;-65
2022/03/05 00:23:06;;;;;;;10.70;3.90;;;-4.60;99.90;;;;;;5000932;28;20079;-65
2022/03/05 00:25:33;;;;;;;18.90;3.93;;;-4.60;99.90;;;;;;5005516;28;20061;-68
2022/03/05 00:28:00;;;;;;;15.40;3.87;;;-4.60;99.90;;;;;;5002732;28;20207;-68
2022/03/05 00:30:27;;;;;;;15.70;3.57;;;-4.70;99.90;;;;;;5004985;28;20073;-64
2022/03/05 00:32:54;;;;;;;8.60;3.40;;;-4.70;99.90;;;;;;5003294;28;20563;-67
2022/03/05 00:35:21;;;;;;;8.93;4.40;;;-4.70;99.90;;;;;;5005488;28;20069;-64
2022/03/05 00:37:48;;;;;;;11.03;3.13;;;-4.70;99.90;;;;;;5003839;28;20050;-63
2022/03/05 00:40:16;;;;;;;13.90;3.13;;;-4.70;99.90;;;;;;5005884;28;20046;-66
2022/03/05 00:42:43;;;;;;;11.90;3.93;;;-4.70;99.90;;;;;;5000541;28;20525;-66
2022/03/05 00:45:10;;;;;;;5.70;3.37;;;-4.80;99.90;;;;;;5005568;28;20093;-64
2022/03/05 00:47:37;;;;;;;5.60;3.03;;;-4.80;99.90;;;;;;5002983;28;20137;-64
2022/03/05 00:50:06;;;;;;;7.57;2.93;;;-4.80;99.90;;;;;;5002282;28;21149;-63
2022/03/05 00:52:34;;;;;;;13.83;3.57;;;-4.80;99.90;;;;;;4999756;28;20077;-76
2022/03/05 00:55:02;;;;;;;12.87;4.37;;;-4.90;99.90;;;;;;5000030;28;20050;-67
2022/03/05 00:57:28;;;;;;;11.90;4.07;;;-4.90;99.90;;;;;;4984320;28;20050;-65
2022/03/05 00:59:56;;;;;;;12.57;4.20;;;-4.90;99.90;;;;;;4996728;28;20045;-63
2022/03/05 01:02:22;;;;;;;17.63;4.20;;;-4.90;99.90;;;;;;5002381;28;20049;-66
2022/03/05 01:04:50;;;;;;;9.57;3.23;;;-5.00;99.90;;;;;;5003481;28;20049;-65
2022/03/05 01:07:17;;;;;;;13.23;4.13;;;-5.00;99.90;;;;;;5001890;28;20163;-63
2022/03/05 01:09:44;;;;;;;10.13;3.33;;;-5.00;99.90;;;;;;5003504;28;20159;-64
2022/03/05 01:12:11;;;;;;;7.90;4.10;;;-5.00;99.90;;;;;;5001064;28;20496;-66
2022/03/05 01:14:37;;;;;;;14.27;4.23;;;-5.10;99.90;;;;;;4999902;28;20507;-66
2022/03/05 01:17:06;;;;;;;10.77;5.27;;;-5.10;99.90;;;;;;5004579;28;20112;-64
2022/03/05 01:19:33;;;;;;;13.80;4.40;;;-5.10;99.90;;;;;;5001632;28;20081;-66
2022/03/05 01:22:00;;;;;;;12.50;3.93;;;-5.20;99.90;;;;;;5004960;28;20472;-68
2022/03/05 01:24:27;;;;;;;12.23;4.00;;;-5.20;99.90;;;;;;4999387;28;20514;-64
2022/03/05 01:26:54;;;;;;;17.07;4.07;;;-5.20;99.90;;;;;;5005705;28;20073;-67
2022/03/05 01:29:21;;;;;;;9.03;4.33;;;-5.20;99.90;;;;;;5001267;28;20096;-68
2022/03/05 01:31:48;;;;;;;12.60;4.00;;;-5.20;99.90;;;;;;5001349;28;20204;-67
2022/03/05 01:34:15;;;;;;;22.27;6.03;;;-5.20;99.90;;;;;;5000231;28;20058;-64
2022/03/05 01:36:42;;;;;;;11.83;3.60;;;-5.20;99.90;;;;;;4992901;28;20232;-68
2022/03/05 01:39:10;;;;;;;8.60;3.10;;;-5.30;99.90;;;;;;4999167;28;20057;-64
2022/03/05 01:41:37;;;;;;;16.77;3.70;;;-5.30;99.90;;;;;;5003542;28;20049;-71
2022/03/05 01:44:09;;;;;;;12.85;3.95;;;-5.30;99.90;;;;;;4694105;28;10000534;-64
2022/03/05 01:46:39;;;;;;;9.07;3.03;;;-5.30;99.90;;;;;;1722660;28;10002005;-76
2022/03/05 01:49:09;;;;;;;14.85;3.35;;;-5.40;99.90;;;;;;5001085;28;20159;-63
2022/03/05 01:51:37;;;;;;;6.30;3.00;;;-5.40;99.90;;;;;;4994523;28;20114;-66
2022/03/05 01:54:05;;;;;;;6.20;2.70;;;-5.40;99.90;;;;;;4995361;28;20161;-64
2022/03/05 01:56:33;;;;;;;10.00;3.77;;;-5.40;99.90;;;;;;4997640;28;20045;-69
2022/03/05 01:59:01;;;;;;;9.90;3.77;;;-5.40;99.90;;;;;;5001660;28;20141;-68
2022/03/05 02:01:28;;;;;;;9.23;3.27;;;-5.40;99.90;;;;;;5002597;28;20492;-64
2022/03/05 02:03:56;;;;;;;10.93;4.03;;;-5.40;99.90;;;;;;5002792;28;20465;-67
2022/03/05 02:06:24;;;;;;;8.33;3.87;;;-5.40;99.90;;;;;;4999838;28;20124;-66
2022/03/05 02:08:51;;;;;;;18.07;4.83;;;-5.40;99.90;;;;;;4999885;28;20676;-66
2022/03/05 02:11:18;;;;;;;9.70;3.30;;;-5.50;99.90;;;;;;5002795;28;20579;-63
2022/03/05 02:13:45;;;;;;;11.37;3.83;;;-5.50;99.90;;;;;;5003769;28;20046;-67
2022/03/05 02:16:12;;;;;;;9.30;3.37;;;-5.50;99.90;;;;;;5001753;28;20259;-68
2022/03/05 02:18:48;;;;;;;14.33;4.50;;;-5.50;99.90;;;;;;4999382;28;20133;-65
2022/03/05 02:21:16;;;;;;;18.43;3.73;;;-5.50;99.90;;;;;;5002669;28;20054;-63
2022/03/05 02:23:43;;;;;;;10.70;3.80;;;-5.60;99.90;;;;;;4999771;28;20161;-66
2022/03/05 02:26:10;;;;;;;11.77;3.33;;;-5.60;99.90;;;;;;5002803;28;20432;-64
2022/03/05 02:28:38;;;;;;;9.87;3.93;;;-5.60;99.90;;;;;;4996695;28;20057;-68
2022/03/05 02:31:06;;;;;;;10.90;6.17;;;-5.60;99.90;;;;;;4999620;28;20156;-63
2022/03/05 02:33:33;;;;;;;13.47;4.27;;;-5.60;99.90;;;;;;4998016;28;20125;-66
2022/03/05 02:36:01;;;;;;;10.50;3.53;;;-5.70;99.90;;;;;;5002105;28;20545;-66
2022/03/05 02:38:28;;;;;;;11.33;4.13;;;-5.70;99.90;;;;;;4998085;28;20127;-70
2022/03/05 02:40:55;;;;;;;10.33;4.77;;;-5.70;99.90;;;;;;4984637;28;20050;-67
2022/03/05 02:43:23;;;;;;;14.33;4.87;;;-5.70;99.90;;;;;;4999973;28;20144;-76
2022/03/05 02:45:51;;;;;;;11.37;4.53;;;-5.70;99.90;;;;;;5002183;28;20120;-63
2022/03/05 02:48:19;;;;;;;9.30;5.23;;;-5.70;99.90;;;;;;5001795;28;20053;-64
2022/03/05 02:50:47;;;;;;;11.20;5.60;;;-5.70;99.90;;;;;;5000532;28;20085;-70
2022/03/05 02:53:15;;;;;;;8.93;4.57;;;-5.70;99.90;;;;;;5001676;28;20094;-65
2022/03/05 02:55:42;;;;;;;8.47;3.50;;;-5.80;99.90;;;;;;5001285;28;20053;-71
2022/03/05 02:58:09;;;;;;;16.87;4.37;;;-5.80;99.90;;;;;;4997783;28;20172;-73
2022/03/05 03:00:36;;;;;;;9.87;4.27;;;-5.90;99.90;;;;;;4999894;28;20088;-63
2022/03/05 03:03:03;;;;;;;6.83;3.70;;;-5.90;99.90;;;;;;5000278;28;20045;-68
2022/03/05 03:05:31;;;;;;;9.27;3.83;;;-5.90;99.90;;;;;;5001755;28;20104;-67
2022/03/05 03:07:58;;;;;;;8.30;2.73;;;-5.90;99.90;;;;;;5000654;28;20077;-64
2022/03/05 03:10:26;;;;;;;15.23;4.07;;;-5.90;99.90;;;;;;4998309;28;20102;-70
2022/03/05 03:12:53;;;;;;;7.87;2.73;;;-5.90;99.90;;;;;;5002717;28;20081;-75
2022/03/05 03:15:20;;;;;;;9.43;4.60;;;-5.90;99.90;;;;;;5000030;28;20481;-66
2022/03/05 03:17:49;;;;;;;7.27;4.40;;;-6.00;99.90;;;;;;4990306;28;20058;-67
2022/03/05 03:20:19;;;;;;;5.73;2.30;;;-6.00;99.90;;;;;;4994893;28;20432;-64
2022/03/05 03:22:46;;;;;;;8.88;2.47;;;-6.00;99.90;;;;;;5000129;28;20049;-64
2022/03/05 03:25:14;;;;;;;8.37;2.53;;;-6.00;99.90;;;;;;5000345;28;20084;-63
2022/03/05 03:27:41;;;;;;;6.33;2.40;;;-6.00;99.90;;;;;;4986657;28;20534;-67
2022/03/05 03:30:10;;;;;;;6.90;2.63;;;-6.00;99.90;;;;;;4979446;28;20453;-65
2022/03/05 03:32:38;;;;;;;3.93;2.07;;;-6.10;99.90;;;;;;5010693;28;20164;-63
2022/03/05 03:35:07;;;;;;;7.70;1.70;;;-6.00;99.90;;;;;;4982496;28;20535;-65
2022/03/05 03:37:35;;;;;;;5.03;1.45;;;-6.00;99.90;;;;;;4995515;28;20105;-69
2022/03/05 03:40:06;;;;;;;4.83;1.70;;;-6.00;99.90;;;;;;4994573;28;20054;-69
2022/03/05 03:42:33;;;;;;;4.97;1.50;;;-6.00;99.90;;;;;;4958483;28;23860;-66
2022/03/05 03:45:13;;;;;;;5.75;1.75;;;-6.00;99.90;;;;;;3945510;28;10002017;-64
2022/03/05 03:47:42;;;;;;;8.67;1.60;;;-6.00;99.90;;;;;;1715610;28;10002010;-66
2022/03/05 03:50:11;;;;;;;3.20;1.67;;;-6.00;99.90;;;;;;4978842;28;20289;-64
2022/03/05 03:52:39;;;;;;;8.65;1.90;;;-6.00;99.90;;;;;;5010561;28;20074;-68
2022/03/05 03:55:10;;;;;;;5.20;1.40;;;-6.00;99.90;;;;;;4981573;28;20566;-65
2022/03/05 03:57:38;;;;;;;8.63;4.03;;;-6.00;99.90;;;;;;4982351;28;20050;-66
2022/03/05 04:00:09;;;;;;;12.57;2.03;;;-6.00;99.90;;;;;;4981898;28;20058;-67
2022/03/05 04:02:39;;;;;;;8.10;2.57;;;-6.10;99.90;;;;;;4977621;28;20109;-64
2022/03/05 04:05:07;;;;;;;10.27;1.83;;;-6.10;99.90;;;;;;4981722;28;20133;-68
2022/03/05 04:10:20;;;;;;;5.57;2.00;;;-6.10;99.90;;;;;;4981595;28;20047;-66
2022/03/05 04:12:47;;;;;;;20.23;2.30;;;-6.10;99.90;;;;;;4978614;28;20576;-67
2022/03/05 04:15:13;;;;;;;4.67;1.53;;;-6.10;99.90;;;;;;4981258;28;20088;-71
2022/03/05 04:17:40;;;;;;;2.67;1.10;;;-6.10;99.90;;;;;;4982340;28;20141;-63
2022/03/05 04:20:08;;;;;;;9.27;1.53;;;-6.10;99.90;;;;;;4979006;28;20077;-65
2022/03/05 04:22:35;;;;;;;2.87;1.37;;;-6.10;99.90;;;;;;4980549;28;20775;-67
2022/03/05 04:25:02;;;;;;;3.53;1.10;;;-6.20;99.90;;;;;;4980596;28;20058;-71
2022/03/05 04:27:31;;;;;;;11.77;1.80;;;-6.20;99.90;;;;;;4981710;28;20581;-66
2022/03/05 04:29:58;;;;;;;5.27;1.37;;;-6.20;99.90;;;;;;4980695;28;20065;-65
2022/03/05 04:32:25;;;;;;;2.60;1.87;;;-6.20;99.90;;;;;;4977548;28;20072;-65
2022/03/05 04:34:52;;;;;;;5.73;1.53;;;-6.20;99.90;;;;;;4983484;28;20062;-75
2022/03/05 04:37:19;;;;;;;3.90;1.03;;;-6.20;99.90;;;;;;4985679;28;20069;-65
2022/03/05 04:39:46;;;;;;;3.43;0.97;;;-6.20;99.90;;;;;;4983111;28;20042;-63
2022/03/05 04:42:13;;;;;;;5.13;1.10;;;-6.20;99.90;;;;;;4983763;28;20050;-73
2022/03/05 04:44:40;;;;;;;8.97;2.53;;;-6.30;99.90;;;;;;4982989;28;20082;-64
2022/03/05 04:47:07;;;;;;;5.43;1.37;;;-6.30;99.90;;;;;;4975770;28;20057;-63
2022/03/05 04:49:34;;;;;;;3.83;1.43;;;-6.30;99.90;;;;;;4985802;28;20132;-72
2022/03/05 04:52:01;;;;;;;4.83;0.90;;;-6.30;99.90;;;;;;4984307;28;20131;-64
2022/03/05 04:54:30;;;;;;;5.33;1.10;;;-6.30;99.90;;;;;;4983004;28;20156;-64
2022/03/05 04:56:57;;;;;;;4.23;0.87;;;-6.30;99.90;;;;;;4982843;28;20082;-68
2022/03/05 04:59:24;;;;;;;1.60;0.60;;;-6.30;99.90;;;;;;4984068;28;20180;-69
2022/03/05 05:01:52;;;;;;;3.63;0.90;;;-6.30;99.90;;;;;;4983025;28;20085;-67
2022/03/05 05:04:19;;;;;;;14.87;2.90;;;-6.30;99.90;;;;;;4983628;28;20104;-71
2022/03/05 05:06:46;;;;;;;2.90;1.00;;;-6.30;99.90;;;;;;4983268;28;20132;-66
2022/03/05 05:09:13;;;;;;;6.43;1.43;;;-6.30;99.90;;;;;;4986570;28;20120;-63
2022/03/05 05:11:41;;;;;;;7.10;2.67;;;-6.30;99.90;;;;;;4992211;28;20504;-75
2022/03/05 05:14:10;;;;;;;2.50;0.53;;;-6.30;99.90;;;;;;4990913;28;20061;-64
2022/03/05 05:16:38;;;;;;;3.08;0.98;;;-6.30;99.90;;;;;;4983057;28;20073;-69
2022/03/05 05:21:52;;;;;;;2.97;1.37;;;-6.40;99.90;;;;;;4983771;28;20636;-66
2022/03/05 05:24:19;;;;;;;6.20;2.93;;;-6.40;99.90;;;;;;4984222;28;20105;-64
2022/03/05 05:26:46;;;;;;;4.67;1.00;;;-6.40;99.90;;;;;;4982824;28;20465;-65
2022/03/05 05:29:13;;;;;;;8.43;1.00;;;-6.40;99.90;;;;;;4981931;28;20062;-68
2022/03/05 05:32:01;;;;;;;6.83;1.67;;;-6.40;99.90;;;;;;4982785;28;20046;-64
2022/03/05 05:34:28;;;;;;;8.03;1.40;;;-6.30;99.90;;;;;;4982643;28;20120;-65
2022/03/05 05:36:55;;;;;;;3.47;1.53;;;-6.30;99.90;;;;;;4979646;28;20084;-67
2022/03/05 05:39:22;;;;;;;9.20;1.40;;;-6.40;99.90;;;;;;4983848;28;20085;-72
2022/03/05 05:41:49;;;;;;;6.10;1.50;;;-6.40;99.90;;;;;;4982025;28;20058;-69
2022/03/05 05:44:29;;;;;;;7.28;1.60;;;-6.40;99.90;;;;;;3411547;28;10022080;-66
2022/03/05 05:46:56;;;;;;;3.93;1.30;;;-6.40;99.90;;;;;;2918256;28;10002014;-64
2022/03/05 05:49:23;;;;;;;3.03;1.80;;;-6.40;99.90;;;;;;4984907;28;20100;-70
2022/03/05 05:51:50;;;;;;;2.30;1.00;;;-6.40;99.90;;;;;;4982911;28;20050;-69
2022/03/05 05:54:17;;;;;;;6.27;1.63;;;-6.40;99.90;;;;;;4984290;28;20076;-70
2022/03/05 05:56:43;;;;;;;9.07;1.90;;;-6.40;99.90;;;;;;4979752;28;20488;-67
2022/03/05 05:59:10;;;;;;;9.33;1.57;;;-6.30;99.90;;;;;;4976413;28;20407;-64
2022/03/05 06:01:37;;;;;;;10.03;2.33;;;-6.30;99.90;;;;;;4980394;28;20050;-64
2022/03/05 06:04:04;;;;;;;9.67;1.07;;;-6.30;99.90;;;;;;4981853;28;20047;-69
2022/03/05 06:06:31;;;;;;;6.47;2.00;;;-6.30;99.90;;;;;;4975789;28;20058;-70
2022/03/05 06:08:59;;;;;;;4.43;1.13;;;-6.30;99.90;;;;;;4981747;28;20105;-70
2022/03/05 06:11:26;;;;;;;8.57;2.17;;;-6.30;99.90;;;;;;4981669;28;20133;-72
2022/03/05 06:13:53;;;;;;;9.23;2.50;;;-6.30;99.90;;;;;;4981804;28;20118;-65
2022/03/05 06:16:20;;;;;;;11.03;1.80;;;-6.20;99.90;;;;;;4980728;28;20050;-68
2022/03/05 06:18:47;;;;;;;6.70;2.00;;;-6.20;99.90;;;;;;4979678;28;20078;-63
2022/03/05 06:21:14;;;;;;;14.27;1.83;;;-6.10;99.90;;;;;;4982384;28;20075;-64
2022/03/05 06:23:41;;;;;;;6.23;2.30;;;-6.10;99.90;;;;;;4982102;28;20128;-64
2022/03/05 06:26:08;;;;;;;8.23;1.77;;;-6.10;99.90;;;;;;4994552;28;20142;-66
2022/03/05 06:28:35;;;;;;;4.83;1.30;;;-6.00;99.90;;;;;;4996909;28;20183;-64
2022/03/05 06:31:02;;;;;;;10.43;1.97;;;-6.00;99.90;;;;;;5000498;28;20069;-65
2022/03/05 06:33:30;;;;;;;9.83;2.67;;;-5.90;99.90;;;;;;5001701;28;20103;-64
2022/03/05 06:35:58;;;;;;;9.17;2.37;;;-5.90;99.90;;;;;;4999389;28;20134;-66
2022/03/05 06:38:25;;;;;;;9.60;3.03;;;-5.80;99.90;;;;;;4996641;28;20448;-68
2022/03/05 06:40:52;;;;;;;5.93;2.40;;;-5.70;99.90;;;;;;4999382;28;20057;-65
2022/03/05 06:43:19;;;;;;;11.30;2.53;;;-5.60;99.90;;;;;;5001346;28;20050;-65
2022/03/05 06:45:46;;;;;;;10.27;4.37;;;-5.50;99.90;;;;;;5000914;28;20089;-70
2022/03/05 06:48:13;;;;;;;7.87;4.20;;;-5.50;99.90;;;;;;5001332;28;20046;-67
2022/03/05 06:50:40;;;;;;;9.63;3.20;;;-5.40;99.90;;;;;;5028404;28;20131;-69
2022/03/05 06:53:07;;;;;;;11.23;5.53;;;-5.30;99.90;;;;;;5000769;28;20097;-68
2022/03/05 06:55:34;;;;;;;24.07;3.87;;;-5.30;99.90;;;;;;5001764;28;20065;-72
2022/03/05 06:58:01;;;;;;;25.80;3.87;;;-5.20;99.90;;;;;;4997125;28;20125;-64
2022/03/05 07:00:28;;;;;;;27.03;10.20;;;-5.00;99.90;;;;;;4999774;28;20077;-72
2022/03/05 07:02:56;;;;;;;14.50;6.53;;;-4.90;99.90;;;;;;4999415;28;20059;-64
2022/03/05 07:05:23;;;;;;;23.20;8.83;;;-4.80;99.90;;;;;;5000019;28;20046;-70
2022/03/05 07:07:50;;;;;;;15.90;5.63;;;-4.60;99.90;;;;;;4998786;28;20200;-68
2022/03/05 07:10:17;;;;;;;14.90;5.70;;;-4.40;99.90;;;;;;4997827;28;20088;-67
2022/03/05 07:12:44;;;;;;;17.10;5.57;;;-4.30;99.90;;;;;;4997395;28;20065;-68
2022/03/05 07:15:11;;;;;;;24.33;6.63;;;-4.20;99.90;;;;;;4997082;28;20049;-75
2022/03/05 07:17:47;;;;;;;19.70;7.33;;;-4.00;99.90;;;;;;4997394;28;20523;-64
2022/03/05 07:20:13;;;;;;;13.03;5.73;;;-3.90;99.90;;;;;;5000310;28;20042;-65
2022/03/05 07:22:40;;;;;;;19.93;13.93;;;-3.80;99.90;;;;;;4998752;28;20845;-64
2022/03/05 07:25:08;;;;;;;12.93;6.97;;;-3.60;99.90;;;;;;4999545;28;20061;-72
2022/03/05 07:27:35;;;;;;;10.53;6.20;;;-3.40;99.90;;;;;;4998911;28;20108;-64
2022/03/05 07:30:02;;;;;;;10.73;6.30;;;-3.30;99.90;;;;;;5002577;28;20104;-69
2022/03/05 07:32:29;;;;;;;4.03;3.00;;;-3.10;99.90;;;;;;4998849;28;20049;-71
2022/03/05 07:34:56;;;;;;;8.10;3.80;;;-2.90;99.90;;;;;;4998642;28;20143;-64
2022/03/05 07:37:23;;;;;;;11.00;5.47;;;-2.70;99.90;;;;;;5000262;28;20584;-69
2022/03/05 07:39:50;;;;;;;11.13;7.18;;;-2.50;99.90;;;;;;4999094;28;20057;-69
2022/03/05 07:42:17;;;;;;;3.83;2.00;;;-2.20;99.90;;;;;;4998366;28;20118;-64
2022/03/05 07:44:44;;;;;;;1.17;0.93;;;-2.00;99.90;;;;;;4997030;28;20049;-68
2022/03/05 07:47:11;;;;;;;3.70;1.17;;;-1.70;99.90;;;;;;4997226;28;20050;-69
2022/03/05 07:49:38;;;;;;;4.97;1.88;;;-1.50;99.90;;;;;;4998222;28;20567;-64
2022/03/05 07:52:05;;;;;;;4.80;1.23;;;-1.30;99.90;;;;;;5000145;28;20448;-67
2022/03/05 07:54:32;;;;;;;6.55;1.33;;;-1.20;99.90;;;;;;4997919;28;20081;-65
2022/03/05 07:56:59;;;;;;;3.45;1.00;;;-1.10;99.90;;;;;;4998198;28;20057;-68
2022/03/05 07:59:26;;;;;;;7.88;1.13;;;-0.90;99.90;;;;;;4998411;28;20519;-64
2022/03/05 08:01:53;;;;;;;3.58;1.40;;;-0.70;99.90;;;;;;4996784;28;20050;-71
2022/03/05 08:04:20;;;;;;;0.82;0.30;;;-0.50;99.90;;;;;;4996082;28;20137;-67
2022/03/05 08:06:48;;;;;;;1.13;0.38;;;-0.40;99.90;;;;;;4994089;28;20050;-64
2022/03/05 08:09:15;;;;;;;2.13;1.15;;;-0.30;99.90;;;;;;4997886;28;20057;-67
2022/03/05 08:11:42;;;;;;;1.20;0.50;;;-0.20;99.90;;;;;;5001512;28;20069;-67
2022/03/05 08:14:08;;;;;;;0.65;0.50;;;-0.10;99.90;;;;;;4998494;28;20073;-74
2022/03/05 08:16:35;;;;;;;5.68;1.17;;;0.10;99.90;;;;;;4999344;28;20053;-66
2022/03/05 08:19:02;;;;;;;3.35;0.70;;;0.10;99.90;;;;;;5002150;28;21216;-65
2022/03/05 08:21:29;;;;;;;3.00;0.95;;;0.30;99.90;;;;;;5001818;28;20485;-65
2022/03/05 08:23:56;;;;;;;4.38;0.80;;;0.30;99.90;;;;;;5002647;28;20127;-68
2022/03/05 08:26:23;;;;;;;1.40;0.43;;;0.40;99.90;;;;;;4999225;28;20073;-71
2022/03/05 08:28:51;;;;;;;1.23;0.52;;;0.50;99.90;;;;;;5001233;28;20070;-67
2022/03/05 08:31:17;;;;;;;1.20;0.30;;;0.50;99.90;;;;;;4999984;28;20081;-64
2022/03/05 08:33:45;;;;;;;2.95;0.50;;;0.60;99.90;;;;;;5002757;28;20123;-70
2022/03/05 08:36:11;;;;;;;2.67;0.17;;;0.70;99.90;;;;;;5002501;28;20230;-68
2022/03/05 08:38:40;;;;;;;1.33;0.40;;;0.80;99.90;;;;;;4999987;28;20154;-66
2022/03/05 08:41:07;;;;;;;10.88;0.70;;;0.90;99.90;;;;;;5001990;28;20498;-67
2022/03/05 08:43:34;;;;;;;3.00;1.55;;;0.90;99.90;;;;;;4999176;28;20111;-68
2022/03/05 08:46:01;;;;;;;6.45;0.85;;;1.00;99.90;;;;;;5003950;28;20041;-64
2022/03/05 08:48:29;;;;;;;7.32;0.70;;;1.00;99.90;;;;;;4953861;28;20092;-65
2022/03/05 08:50:59;;;;;;;10.00;0.90;;;1.10;99.90;;;;;;3312151;28;10023527;-66
2022/03/05 08:53:27;;;;;;;5.63;0.75;;;1.10;99.90;;;;;;2068175;28;10002045;-71
2022/03/05 08:55:54;;;;;;;3.72;0.82;;;1.20;99.90;;;;;;5002493;28;20140;-68
2022/03/05 08:58:21;;;;;;;0.98;0.40;;;1.30;99.90;;;;;;5001247;28;20424;-68
2022/03/05 09:00:49;;;;;;;0.63;0.35;;;1.30;99.90;;;;;;5001573;28;20454;-72
2022/03/05 09:03:17;;;;;;;4.38;0.93;;;1.40;99.90;;;;;;5002170;28;20050;-65
2022/03/05 09:05:46;;;;;;;2.35;0.50;;;1.40;99.90;;;;;;5003290;28;20815;-75
2022/03/05 09:08:14;;;;;;;0.68;0.38;;;1.40;99.90;;;;;;5003333;28;20054;-70
2022/03/05 09:10:41;;;;;;;2.65;0.30;;;1.40;99.90;;;;;;5002144;28;20070;-68
2022/03/05 09:13:08;;;;;;;5.45;0.45;;;1.40;99.90;;;;;;5000387;28;20124;-63
2022/03/05 09:15:35;;;;;;;3.10;0.60;;;1.50;99.90;;;;;;5003985;28;20088;-71
2022/03/05 09:18:02;;;;;;;3.13;0.50;;;1.50;99.90;;;;;;5001039;28;20073;-64
2022/03/05 09:20:29;;;;;;;2.67;0.50;;;1.60;99.90;;;;;;4999626;28;20050;-75
2022/03/05 09:22:56;;;;;;;0.47;0.13;;;1.60;99.90;;;;;;5000630;28;20085;-69
2022/03/05 09:25:23;;;;;;;3.35;0.30;;;1.70;99.90;;;;;;5005421;28;20511;-67
2022/03/05 09:27:52;;;;;;;2.03;0.43;;;1.80;99.90;;;;;;5001469;28;20134;-72
2022/03/05 09:30:20;;;;;;;3.67;0.70;;;1.80;99.90;;;;;;5000903;28;20538;-67
2022/03/05 09:32:47;;;;;;;2.17;0.30;;;1.80;99.90;;;;;;4998373;28;20081;-67
2022/03/05 09:35:14;;;;;;;1.00;0.20;;;1.80;99.90;;;;;;5001188;28;20503;-68
2022/03/05 09:37:41;;;;;;;7.75;0.52;;;1.80;99.90;;;;;;5002326;28;20551;-63
2022/03/05 09:40:10;;;;;;;12.38;1.50;;;1.90;99.90;;;;;;5001121;28;20069;-65
2022/03/05 09:42:41;;;;;;;1.23;0.60;;;2.10;99.90;;;;;;4961690;28;20054;-63
2022/03/05 09:45:21;;;;;;;0.93;0.28;;;2.10;99.90;;;;;;3459440;28;10024379;-67
2022/03/05 09:47:48;;;;;;;6.85;0.60;;;2.00;99.90;;;;;;2240760;28;10002029;-64
2022/03/05 09:50:15;;;;;;;9.73;1.23;;;1.90;99.90;;;;;;5000222;28;20136;-67
2022/03/05 09:52:42;;;;;;;1.95;0.50;;;2.00;99.90;;;;;;4999929;28;20070;-65
2022/03/05 09:55:09;;;;;;;5.57;0.82;;;2.00;99.90;;;;;;5002025;28;20553;-66
2022/03/05 09:57:36;;;;;;;4.30;0.60;;;2.00;99.90;;;;;;5001679;28;20038;-67
2022/03/05 10:00:05;;;;;;;4.70;0.63;;;2.00;99.90;;;;;;5001905;28;20060;-66
2022/03/05 10:02:32;;;;;;;2.70;0.47;;;2.00;99.90;;;;;;4997938;28;20056;-68
2022/03/05 10:05:18;;;;;;;3.20;0.30;;;2.00;99.90;;;;;;5000242;28;20062;-70
2022/03/05 10:08:08;;;;;;;2.95;0.73;;;1.90;99.90;;;;;;5001055;28;20590;-68
2022/03/05 10:11:05;;;;;;;5.20;0.68;;;1.90;99.90;;;;;;4997695;28;20050;-64
2022/03/05 10:13:33;;;;;;;2.50;0.60;;;2.10;99.90;;;;;;5001583;28;20045;-65
2022/03/05 10:16:06;;;;;;;2.25;0.65;;;2.20;99.90;;;;;;5001219;28;20054;-68
2022/03/05 10:18:35;;;;;;;1.27;0.40;;;2.10;99.90;;;;;;4995146;28;20049;-71
2022/03/05 10:21:06;;;;;;;1.13;0.52;;;2.30;99.90;;;;;;4983975;28;20095;-67
2022/03/05 10:23:38;;;;;;;2.53;0.70;;;2.20;99.90;;;;;;5002272;28;20127;-67
2022/03/05 10:26:07;;;;;;;5.97;0.90;;;2.10;99.90;;;;;;4998775;28;20131;-70
2022/03/05 10:28:40;;;;;;;4.18;0.52;;;2.20;99.90;;;;;;4979405;28;20409;-67
2022/03/05 10:31:12;;;;;;;3.35;1.05;;;2.30;99.90;;;;;;5000333;28;20046;-67
2022/03/05 10:33:46;;;;;;;2.88;0.20;;;2.20;99.90;;;;;;4997671;28;20651;-67
2022/03/05 10:36:23;;;;;;;2.15;0.40;;;2.20;99.90;;;;;;5001761;28;20061;-64
2022/03/05 10:38:55;;;;;;;7.43;2.30;;;2.10;99.90;;;;;;4976961;28;20101;-66
2022/03/05 10:41:40;;;;;;;1.55;0.32;;;2.10;99.90;;;;;;4976808;28;20089;-68
2022/03/05 10:44:17;;;;;;;2.60;0.40;;;2.20;99.90;;;;;;4980815;28;20556;-68
2022/03/05 10:46:49;;;;;;;1.42;0.70;;;2.30;99.90;;;;;;4979253;28;20046;-74
2022/03/05 10:49:42;;;;;;;2.70;0.80;;;2.40;99.90;;;;;;4975750;28;20050;-64
2022/03/05 10:52:10;;;;;;;4.70;0.55;;;2.40;99.90;;;;;;4978989;28;20046;-68
2022/03/05 10:54:40;;;;;;;5.85;0.57;;;2.50;99.90;;;;;;4977902;28;20145;-63
2022/03/05 10:57:10;;;;;;;5.68;1.15;;;2.50;99.90;;;;;;4979104;28;20100;-64
2022/03/05 10:59:42;;;;;;;2.65;0.25;;;2.50;99.90;;;;;;4980673;28;20401;-67
2022/03/05 11:02:11;;;;;;;4.32;0.73;;;2.40;99.90;;;;;;4981089;28;20054;-67
2022/03/05 11:04:45;;;;;;;0.85;0.40;;;2.40;99.90;;;;;;4978594;28;20116;-63
2022/03/05 11:07:14;;;;;;;2.15;0.55;;;2.30;99.90;;;;;;4980824;28;20056;-64
2022/03/05 11:09:44;;;;;;;1.17;0.20;;;2.40;99.90;;;;;;4980109;28;20441;-66
2022/03/05 11:12:19;;;;;;;1.88;0.30;;;2.40;99.90;;;;;;4978310;28;20073;-69
2022/03/05 11:14:51;;;;;;;3.35;1.15;;;2.40;99.90;;;;;;4979140;28;20076;-66
2022/03/05 11:17:19;;;;;;;3.33;0.73;;;2.50;99.90;;;;;;4978449;28;20081;-66
2022/03/05 11:19:46;;;;;;;3.20;0.50;;;2.50;99.90;;;;;;4978928;28;20040;-65
2022/03/05 11:22:15;;;;;;;2.88;0.20;;;2.50;99.90;;;;;;4976163;28;20054;-65
2022/03/05 11:24:45;;;;;;;2.45;0.45;;;2.60;99.90;;;;;;4976978;28;20473;-71
2022/03/05 11:27:16;;;;;;;3.40;0.70;;;2.60;99.90;;;;;;4981922;28;20065;-64
2022/03/05 11:29:54;;;;;;;2.05;0.30;;;2.60;99.90;;;;;;4977576;28;20125;-67
2022/03/05 11:32:22;;;;;;;7.88;1.00;;;2.60;99.90;;;;;;4978101;28;20061;-64
2022/03/05 11:34:51;;;;;;;5.65;1.20;;;2.60;99.90;;;;;;4977664;28;20485;-66
2022/03/05 11:37:31;;;;;;;9.38;4.07;;;2.50;99.90;;;;;;4980151;28;20050;-72
2022/03/05 11:40:05;;;;;;;9.82;4.72;;;2.60;99.90;;;;;;4979227;28;20058;-64
2022/03/05 11:42:34;;;;;;;1.92;1.35;;;2.50;99.90;;;;;;4956855;28;21341;-64
2022/03/05 11:45:30;;;;;;;4.38;0.65;;;2.50;99.90;;;;;;2732705;28;10003476;-65
2022/03/05 11:48:36;;;;;;;4.43;1.35;;;2.30;99.90;;;;;;3950795;28;10001707;-72
2022/03/05 11:51:16;;;;;;;7.20;1.02;;;2.40;99.90;;;;;;5002696;28;20531;-65
2022/03/05 11:53:43;;;;;;;4.68;0.90;;;2.40;99.90;;;;;;5001218;28;20042;-64
2022/03/05 11:56:20;;;;;;;7.80;0.88;;;2.40;99.90;;;;;;5004473;28;20104;-64
2022/03/05 11:58:47;;;;;;;3.22;1.10;;;2.60;99.90;;;;;;5002166;28;20116;-65
2022/03/05 12:01:50;;;;;;;5.50;0.88;;;2.70;99.90;;;;;;5005918;28;20097;-63
2022/03/05 12:04:25;;;;;;;0.80;0.25;;;2.70;99.90;;;;;;4996503;28;20451;-64
2022/03/05 12:06:55;;;;;;;5.63;1.63;;;2.70;99.90;;;;;;5002065;28;20446;-72
2022/03/05 12:09:38;;;;;;;1.58;0.30;;;2.70;99.90;;;;;;5004038;28;20500;-71
2022/03/05 12:12:09;;;;;;;1.08;0.30;;;2.70;99.90;;;;;;5004916;28;20050;-70
2022/03/05 12:15:01;;;;;;;2.92;1.25;;;2.70;99.90;;;;;;5002633;28;20077;-65
2022/03/05 12:17:33;;;;;;;0.93;0.30;;;2.60;99.90;;;;;;5038489;28;20064;-66
2022/03/05 12:20:03;;;;;;;1.48;0.40;;;2.70;99.90;;;;;;5003079;28;20064;-71
2022/03/05 12:22:31;;;;;;;;;;;2.80;99.90;;;;;;5006623;28;20045;-65
2022/03/05 12:24:57;;;;;;;2.88;0.20;;;2.80;99.90;;;;;;5018080;28;20342;-65
2022/03/05 12:27:29;;;;;;;0.40;0.20;;;2.80;99.90;;;;;;4996176;28;20145;-71
2022/03/05 12:29:57;;;;;;;1.50;0.60;;;2.80;99.90;;;;;;4996305;28;20069;-66
2022/03/05 12:32:31;;;;;;;1.63;0.50;;;2.90;99.90;;;;;;5001065;28;20494;-70
2022/03/05 12:35:06;;;;;;;1.00;0.47;;;3.00;99.90;;;;;;4995415;28;20042;-64
2022/03/05 12:37:34;;;;;;;1.98;0.50;;;2.90;99.90;;;;;;4987576;28;20057;-65
2022/03/05 12:40:04;;;;;;;2.10;0.57;;;2.90;99.90;;;;;;4982626;28;20902;-63
2022/03/05 12:42:43;;;;;;;2.40;0.45;;;2.90;99.90;;;;;;4983431;28;20748;-63
2022/03/05 12:45:23;;;;;;;1.05;0.63;;;2.80;99.90;;;;;;4982561;28;20561;-65
2022/03/05 12:47:53;;;;;;;2.15;0.30;;;2.80;99.90;;;;;;4981999;28;20173;-68
2022/03/05 12:50:23;;;;;;;;;;;2.70;99.90;;;;;;4979145;28;20396;-67
2022/03/05 12:53:03;;;;;;;7.03;0.93;;;2.60;99.90;;;;;;5000520;28;19925;-64
2022/03/05 12:55:43;;;;;;;3.50;0.52;;;2.60;99.90;;;;;;5000798;28;20408;-67
2022/03/05 12:58:15;;;;;;;9.18;1.40;;;2.50;99.90;;;;;;4989262;28;20104;-65
2022/03/05 13:00:46;;;;;;;1.80;0.40;;;2.60;99.90;;;;;;4981223;28;20039;-64
2022/03/05 13:03:14;;;;;;;5.88;1.08;;;2.70;99.90;;;;;;4985517;28;20118;-64